sensor_id;sensor_type;location;lat;lon;timestamp;P1;durP1;ratioP1;P2;durP2;ratioP2
49730;SDS011;35622;52.008;5.426;2024-01-30T00:01:39;25.73;;;16.25;;
49730;SDS011;35622;52.008;5.426;2024-01-30T00:04:05;23.83;;;15.88;;
49730;SDS011;35622;52.008;5.426;2024-01-30T00:06:30;23.75;;;15.57;;
49730;SDS011;35622;52.008;5.426;2024-01-30T00:08:56;21.25;;;15.35;;
49730;SDS011;35622;52.008;5.426;2024-01-30T00:11:22;22.38;;;15.60;;
49730;SDS011;35622;52.008;5.426;2024-01-30T00:13:50;23.77;;;15.90;;
49730;SDS011;35622;52.008;5.426;2024-01-30T00:16:22;26.23;;;16.92;;
49730;SDS011;35622;52.008;5.426;2024-01-30T00:18:50;22.13;;;15.40;;
49730;SDS011;35622;52.008;5.426;2024-01-30T00:21:16;22.00;;;15.18;;
49730;SDS011;35622;52.008;5.426;2024-01-30T00:23:42;23.65;;;15.68;;
49730;SDS011;35622;52.008;5.426;2024-01-30T00:26:07;26.35;;;16.63;;
49730;SDS011;35622;52.008;5.426;2024-01-30T00:28:33;22.35;;;15.35;;
49730;SDS011;35622;52.008;5.426;2024-01-30T00:30:58;23.90;;;16.92;;
49730;SDS011;35622;52.008;5.426;2024-01-30T00:33:24;21.73;;;15.52;;
49730;SDS011;35622;52.008;5.426;2024-01-30T00:35:50;22.85;;;16.02;;
49730;SDS011;35622;52.008;5.426;2024-01-30T00:38:15;22.92;;;15.40;;
49730;SDS011;35622;52.008;5.426;2024-01-30T00:40:41;22.27;;;15.57;;
49730;SDS011;35622;52.008;5.426;2024-01-30T00:43:06;21.40;;;15.43;;
49730;SDS011;35622;52.008;5.426;2024-01-30T00:45:32;22.05;;;16.00;;
49730;SDS011;35622;52.008;5.426;2024-01-30T00:47:57;20.35;;;15.00;;
49730;SDS011;35622;52.008;5.426;2024-01-30T00:50:23;23.25;;;14.48;;
49730;SDS011;35622;52.008;5.426;2024-01-30T00:52:49;23.00;;;15.40;;
49730;SDS011;35622;52.008;5.426;2024-01-30T00:55:14;24.55;;;15.30;;
49730;SDS011;35622;52.008;5.426;2024-01-30T00:57:40;20.67;;;14.38;;
49730;SDS011;35622;52.008;5.426;2024-01-30T01:00:06;23.15;;;15.30;;
49730;SDS011;35622;52.008;5.426;2024-01-30T01:02:34;21.90;;;16.42;;
49730;SDS011;35622;52.008;5.426;2024-01-30T01:05:00;22.75;;;15.13;;
49730;SDS011;35622;52.008;5.426;2024-01-30T01:07:25;23.38;;;15.57;;
49730;SDS011;35622;52.008;5.426;2024-01-30T01:09:51;21.17;;;14.13;;
49730;SDS011;35622;52.008;5.426;2024-01-30T01:12:17;22.58;;;14.02;;
49730;SDS011;35622;52.008;5.426;2024-01-30T01:14:42;20.95;;;14.90;;
49730;SDS011;35622;52.008;5.426;2024-01-30T01:17:08;25.52;;;15.02;;
49730;SDS011;35622;52.008;5.426;2024-01-30T01:19:34;20.83;;;14.82;;
49730;SDS011;35622;52.008;5.426;2024-01-30T01:21:59;20.55;;;14.52;;
49730;SDS011;35622;52.008;5.426;2024-01-30T01:24:25;22.23;;;15.02;;
49730;SDS011;35622;52.008;5.426;2024-01-30T01:26:50;28.63;;;16.40;;
49730;SDS011;35622;52.008;5.426;2024-01-30T01:29:16;23.02;;;15.20;;
49730;SDS011;35622;52.008;5.426;2024-01-30T01:31:41;23.45;;;15.40;;
49730;SDS011;35622;52.008;5.426;2024-01-30T01:34:11;24.92;;;15.98;;
49730;SDS011;35622;52.008;5.426;2024-01-30T01:36:37;22.83;;;14.50;;
49730;SDS011;35622;52.008;5.426;2024-01-30T01:39:03;24.85;;;15.10;;
49730;SDS011;35622;52.008;5.426;2024-01-30T01:41:32;22.63;;;15.73;;
49730;SDS011;35622;52.008;5.426;2024-01-30T01:43:58;30.05;;;15.13;;
49730;SDS011;35622;52.008;5.426;2024-01-30T01:46:26;20.95;;;14.32;;
49730;SDS011;35622;52.008;5.426;2024-01-30T01:48:53;21.58;;;15.10;;
49730;SDS011;35622;52.008;5.426;2024-01-30T01:51:20;20.52;;;14.73;;
49730;SDS011;35622;52.008;5.426;2024-01-30T01:53:46;21.50;;;14.60;;
49730;SDS011;35622;52.008;5.426;2024-01-30T01:56:12;21.08;;;14.63;;
49730;SDS011;35622;52.008;5.426;2024-01-30T01:58:38;23.85;;;15.57;;
49730;SDS011;35622;52.008;5.426;2024-01-30T02:01:05;24.35;;;14.77;;
49730;SDS011;35622;52.008;5.426;2024-01-30T02:03:30;21.77;;;14.75;;
49730;SDS011;35622;52.008;5.426;2024-01-30T02:05:56;19.95;;;13.82;;
49730;SDS011;35622;52.008;5.426;2024-01-30T02:08:23;21.45;;;14.00;;
49730;SDS011;35622;52.008;5.426;2024-01-30T02:10:49;19.17;;;13.80;;
49730;SDS011;35622;52.008;5.426;2024-01-30T02:13:15;19.85;;;14.13;;
49730;SDS011;35622;52.008;5.426;2024-01-30T02:15:40;19.77;;;13.60;;
49730;SDS011;35622;52.008;5.426;2024-01-30T02:18:06;19.35;;;13.38;;
49730;SDS011;35622;52.008;5.426;2024-01-30T02:20:32;20.13;;;14.40;;
49730;SDS011;35622;52.008;5.426;2024-01-30T02:23:00;17.83;;;13.32;;
49730;SDS011;35622;52.008;5.426;2024-01-30T02:25:34;19.45;;;13.85;;
49730;SDS011;35622;52.008;5.426;2024-01-30T02:28:03;19.27;;;13.23;;
49730;SDS011;35622;52.008;5.426;2024-01-30T02:30:29;20.55;;;13.73;;
49730;SDS011;35622;52.008;5.426;2024-01-30T02:32:54;18.52;;;13.63;;
49730;SDS011;35622;52.008;5.426;2024-01-30T02:35:20;20.30;;;14.55;;
49730;SDS011;35622;52.008;5.426;2024-01-30T02:37:45;20.33;;;13.35;;
49730;SDS011;35622;52.008;5.426;2024-01-30T02:40:11;20.75;;;14.15;;
49730;SDS011;35622;52.008;5.426;2024-01-30T02:42:37;21.50;;;13.98;;
49730;SDS011;35622;52.008;5.426;2024-01-30T02:45:02;18.20;;;13.32;;
49730;SDS011;35622;52.008;5.426;2024-01-30T02:47:28;17.85;;;12.95;;
49730;SDS011;35622;52.008;5.426;2024-01-30T02:49:54;20.55;;;13.57;;
49730;SDS011;35622;52.008;5.426;2024-01-30T02:52:19;21.10;;;13.98;;
49730;SDS011;35622;52.008;5.426;2024-01-30T02:54:45;17.52;;;12.85;;
49730;SDS011;35622;52.008;5.426;2024-01-30T02:57:10;18.17;;;12.65;;
49730;SDS011;35622;52.008;5.426;2024-01-30T02:59:36;20.52;;;13.50;;
49730;SDS011;35622;52.008;5.426;2024-01-30T03:02:01;20.88;;;13.15;;
49730;SDS011;35622;52.008;5.426;2024-01-30T03:04:27;19.10;;;12.45;;
49730;SDS011;35622;52.008;5.426;2024-01-30T03:06:55;19.98;;;12.38;;
49730;SDS011;35622;52.008;5.426;2024-01-30T03:09:20;19.08;;;12.60;;
49730;SDS011;35622;52.008;5.426;2024-01-30T03:11:46;18.02;;;11.90;;
49730;SDS011;35622;52.008;5.426;2024-01-30T03:14:11;19.38;;;12.63;;
49730;SDS011;35622;52.008;5.426;2024-01-30T03:16:37;18.67;;;13.00;;
49730;SDS011;35622;52.008;5.426;2024-01-30T03:19:03;20.60;;;12.95;;
49730;SDS011;35622;52.008;5.426;2024-01-30T03:21:30;19.80;;;12.85;;
49730;SDS011;35622;52.008;5.426;2024-01-30T03:23:55;19.90;;;13.25;;
49730;SDS011;35622;52.008;5.426;2024-01-30T03:26:21;19.98;;;13.52;;
49730;SDS011;35622;52.008;5.426;2024-01-30T03:28:47;19.65;;;13.88;;
49730;SDS011;35622;52.008;5.426;2024-01-30T03:31:14;16.50;;;12.05;;
49730;SDS011;35622;52.008;5.426;2024-01-30T03:33:40;19.98;;;12.77;;
49730;SDS011;35622;52.008;5.426;2024-01-30T03:36:06;17.27;;;12.43;;
49730;SDS011;35622;52.008;5.426;2024-01-30T03:38:32;19.55;;;12.18;;
49730;SDS011;35622;52.008;5.426;2024-01-30T03:40:58;18.05;;;13.25;;
49730;SDS011;35622;52.008;5.426;2024-01-30T03:43:24;17.45;;;12.63;;
49730;SDS011;35622;52.008;5.426;2024-01-30T03:45:50;16.98;;;12.13;;
49730;SDS011;35622;52.008;5.426;2024-01-30T03:48:15;18.10;;;12.27;;
49730;SDS011;35622;52.008;5.426;2024-01-30T03:50:41;18.00;;;13.18;;
49730;SDS011;35622;52.008;5.426;2024-01-30T03:53:07;17.55;;;12.73;;
49730;SDS011;35622;52.008;5.426;2024-01-30T03:55:32;18.50;;;12.65;;
49730;SDS011;35622;52.008;5.426;2024-01-30T03:57:58;19.02;;;12.77;;
49730;SDS011;35622;52.008;5.426;2024-01-30T04:00:23;19.65;;;12.23;;
49730;SDS011;35622;52.008;5.426;2024-01-30T04:02:49;18.13;;;12.18;;
49730;SDS011;35622;52.008;5.426;2024-01-30T04:05:16;17.77;;;12.00;;
49730;SDS011;35622;52.008;5.426;2024-01-30T04:07:42;18.83;;;12.20;;
49730;SDS011;35622;52.008;5.426;2024-01-30T04:10:07;17.00;;;12.18;;
49730;SDS011;35622;52.008;5.426;2024-01-30T04:12:34;17.60;;;12.00;;
49730;SDS011;35622;52.008;5.426;2024-01-30T04:15:00;17.95;;;12.88;;
49730;SDS011;35622;52.008;5.426;2024-01-30T04:17:26;19.42;;;13.70;;
49730;SDS011;35622;52.008;5.426;2024-01-30T04:19:53;18.27;;;12.55;;
49730;SDS011;35622;52.008;5.426;2024-01-30T04:22:19;19.08;;;12.95;;
49730;SDS011;35622;52.008;5.426;2024-01-30T04:24:45;17.30;;;12.52;;
49730;SDS011;35622;52.008;5.426;2024-01-30T04:27:11;16.38;;;11.35;;
49730;SDS011;35622;52.008;5.426;2024-01-30T04:29:36;16.52;;;12.27;;
49730;SDS011;35622;52.008;5.426;2024-01-30T04:32:02;21.65;;;12.68;;
49730;SDS011;35622;52.008;5.426;2024-01-30T04:34:28;17.50;;;11.88;;
49730;SDS011;35622;52.008;5.426;2024-01-30T04:36:54;17.00;;;11.90;;
49730;SDS011;35622;52.008;5.426;2024-01-30T04:39:19;17.33;;;11.93;;
49730;SDS011;35622;52.008;5.426;2024-01-30T04:41:45;18.80;;;11.90;;
49730;SDS011;35622;52.008;5.426;2024-01-30T04:44:10;16.30;;;11.40;;
49730;SDS011;35622;52.008;5.426;2024-01-30T04:46:36;17.73;;;12.25;;
49730;SDS011;35622;52.008;5.426;2024-01-30T04:49:02;17.63;;;11.75;;
49730;SDS011;35622;52.008;5.426;2024-01-30T04:51:28;17.10;;;12.20;;
49730;SDS011;35622;52.008;5.426;2024-01-30T04:53:54;18.58;;;12.75;;
49730;SDS011;35622;52.008;5.426;2024-01-30T04:56:20;18.45;;;12.32;;
49730;SDS011;35622;52.008;5.426;2024-01-30T04:58:46;17.13;;;11.60;;
49730;SDS011;35622;52.008;5.426;2024-01-30T05:01:18;18.30;;;11.98;;
49730;SDS011;35622;52.008;5.426;2024-01-30T05:03:43;15.38;;;11.27;;
49730;SDS011;35622;52.008;5.426;2024-01-30T05:06:09;17.73;;;12.00;;
49730;SDS011;35622;52.008;5.426;2024-01-30T05:08:35;16.33;;;11.57;;
49730;SDS011;35622;52.008;5.426;2024-01-30T05:11:05;18.17;;;12.18;;
49730;SDS011;35622;52.008;5.426;2024-01-30T05:13:31;18.17;;;11.75;;
49730;SDS011;35622;52.008;5.426;2024-01-30T05:15:57;17.10;;;11.80;;
49730;SDS011;35622;52.008;5.426;2024-01-30T05:18:22;18.33;;;11.95;;
49730;SDS011;35622;52.008;5.426;2024-01-30T05:20:49;20.33;;;12.35;;
49730;SDS011;35622;52.008;5.426;2024-01-30T05:23:15;16.02;;;11.30;;
49730;SDS011;35622;52.008;5.426;2024-01-30T05:25:41;19.88;;;11.85;;
49730;SDS011;35622;52.008;5.426;2024-01-30T05:28:06;17.63;;;11.90;;
49730;SDS011;35622;52.008;5.426;2024-01-30T05:30:32;16.75;;;11.38;;
49730;SDS011;35622;52.008;5.426;2024-01-30T05:32:58;16.30;;;11.80;;
49730;SDS011;35622;52.008;5.426;2024-01-30T05:35:23;15.98;;;11.30;;
49730;SDS011;35622;52.008;5.426;2024-01-30T05:37:49;17.73;;;11.98;;
49730;SDS011;35622;52.008;5.426;2024-01-30T05:40:15;18.75;;;12.48;;
49730;SDS011;35622;52.008;5.426;2024-01-30T05:42:41;16.65;;;11.60;;
49730;SDS011;35622;52.008;5.426;2024-01-30T05:45:07;17.08;;;11.52;;
49730;SDS011;35622;52.008;5.426;2024-01-30T05:47:33;17.50;;;11.73;;
49730;SDS011;35622;52.008;5.426;2024-01-30T05:49:59;16.83;;;11.43;;
49730;SDS011;35622;52.008;5.426;2024-01-30T05:52:25;16.58;;;11.07;;
49730;SDS011;35622;52.008;5.426;2024-01-30T05:54:50;17.17;;;11.40;;
49730;SDS011;35622;52.008;5.426;2024-01-30T05:57:16;14.43;;;10.82;;
49730;SDS011;35622;52.008;5.426;2024-01-30T05:59:42;16.50;;;11.85;;
49730;SDS011;35622;52.008;5.426;2024-01-30T06:02:13;16.20;;;11.38;;
49730;SDS011;35622;52.008;5.426;2024-01-30T06:04:38;17.92;;;11.30;;
49730;SDS011;35622;52.008;5.426;2024-01-30T06:07:04;17.90;;;12.05;;
49730;SDS011;35622;52.008;5.426;2024-01-30T06:09:31;15.85;;;11.23;;
49730;SDS011;35622;52.008;5.426;2024-01-30T06:11:57;17.70;;;11.32;;
49730;SDS011;35622;52.008;5.426;2024-01-30T06:14:22;20.25;;;12.15;;
49730;SDS011;35622;52.008;5.426;2024-01-30T06:16:48;17.55;;;12.07;;
49730;SDS011;35622;52.008;5.426;2024-01-30T06:19:14;16.80;;;11.60;;
49730;SDS011;35622;52.008;5.426;2024-01-30T06:21:40;17.10;;;11.40;;
49730;SDS011;35622;52.008;5.426;2024-01-30T06:24:05;14.77;;;11.00;;
49730;SDS011;35622;52.008;5.426;2024-01-30T06:26:31;16.27;;;11.55;;
49730;SDS011;35622;52.008;5.426;2024-01-30T06:28:56;16.05;;;11.77;;
49730;SDS011;35622;52.008;5.426;2024-01-30T06:31:22;15.40;;;11.35;;
49730;SDS011;35622;52.008;5.426;2024-01-30T06:33:48;18.05;;;11.95;;
49730;SDS011;35622;52.008;5.426;2024-01-30T06:36:14;17.55;;;11.40;;
49730;SDS011;35622;52.008;5.426;2024-01-30T06:38:40;16.00;;;11.20;;
49730;SDS011;35622;52.008;5.426;2024-01-30T06:41:06;18.30;;;11.60;;
49730;SDS011;35622;52.008;5.426;2024-01-30T06:43:31;15.63;;;11.13;;
49730;SDS011;35622;52.008;5.426;2024-01-30T06:45:57;15.93;;;11.20;;
49730;SDS011;35622;52.008;5.426;2024-01-30T06:48:23;16.52;;;11.20;;
49730;SDS011;35622;52.008;5.426;2024-01-30T06:50:48;16.45;;;11.65;;
49730;SDS011;35622;52.008;5.426;2024-01-30T06:53:14;17.20;;;11.65;;
49730;SDS011;35622;52.008;5.426;2024-01-30T06:55:40;18.25;;;11.32;;
49730;SDS011;35622;52.008;5.426;2024-01-30T06:58:05;15.93;;;11.32;;
49730;SDS011;35622;52.008;5.426;2024-01-30T07:00:31;17.98;;;11.30;;
49730;SDS011;35622;52.008;5.426;2024-01-30T07:02:57;15.65;;;11.63;;
49730;SDS011;35622;52.008;5.426;2024-01-30T07:05:22;14.32;;;10.65;;
49730;SDS011;35622;52.008;5.426;2024-01-30T07:07:48;15.02;;;10.43;;
49730;SDS011;35622;52.008;5.426;2024-01-30T07:10:14;15.63;;;10.75;;
49730;SDS011;35622;52.008;5.426;2024-01-30T07:12:39;16.77;;;11.25;;
49730;SDS011;35622;52.008;5.426;2024-01-30T07:15:05;14.88;;;10.80;;
49730;SDS011;35622;52.008;5.426;2024-01-30T07:17:34;15.13;;;11.50;;
49730;SDS011;35622;52.008;5.426;2024-01-30T07:20:00;16.52;;;11.25;;
49730;SDS011;35622;52.008;5.426;2024-01-30T07:22:25;18.17;;;12.45;;
49730;SDS011;35622;52.008;5.426;2024-01-30T07:24:51;17.35;;;12.13;;
49730;SDS011;35622;52.008;5.426;2024-01-30T07:27:17;16.75;;;11.45;;
49730;SDS011;35622;52.008;5.426;2024-01-30T07:29:43;18.73;;;11.50;;
49730;SDS011;35622;52.008;5.426;2024-01-30T07:32:08;15.63;;;10.65;;
49730;SDS011;35622;52.008;5.426;2024-01-30T07:34:34;17.92;;;11.90;;
49730;SDS011;35622;52.008;5.426;2024-01-30T07:37:01;17.58;;;11.38;;
49730;SDS011;35622;52.008;5.426;2024-01-30T07:39:27;16.48;;;11.40;;
49730;SDS011;35622;52.008;5.426;2024-01-30T07:41:53;14.98;;;10.90;;
49730;SDS011;35622;52.008;5.426;2024-01-30T07:44:20;15.65;;;11.32;;
49730;SDS011;35622;52.008;5.426;2024-01-30T07:46:46;15.20;;;10.90;;
49730;SDS011;35622;52.008;5.426;2024-01-30T07:49:11;16.10;;;11.02;;
49730;SDS011;35622;52.008;5.426;2024-01-30T07:51:39;16.08;;;11.75;;
49730;SDS011;35622;52.008;5.426;2024-01-30T07:54:10;17.58;;;11.77;;
49730;SDS011;35622;52.008;5.426;2024-01-30T07:56:36;16.40;;;11.10;;
49730;SDS011;35622;52.008;5.426;2024-01-30T07:59:02;15.05;;;11.13;;
49730;SDS011;35622;52.008;5.426;2024-01-30T08:01:27;15.93;;;11.40;;
49730;SDS011;35622;52.008;5.426;2024-01-30T08:03:53;17.67;;;11.65;;
49730;SDS011;35622;52.008;5.426;2024-01-30T08:06:18;14.57;;;10.85;;
49730;SDS011;35622;52.008;5.426;2024-01-30T08:08:44;20.92;;;11.23;;
49730;SDS011;35622;52.008;5.426;2024-01-30T08:11:10;14.05;;;10.65;;
49730;SDS011;35622;52.008;5.426;2024-01-30T08:13:36;16.67;;;11.82;;
49730;SDS011;35622;52.008;5.426;2024-01-30T08:16:01;15.95;;;11.35;;
49730;SDS011;35622;52.008;5.426;2024-01-30T08:18:27;16.05;;;10.95;;
49730;SDS011;35622;52.008;5.426;2024-01-30T08:20:52;17.02;;;11.20;;
49730;SDS011;35622;52.008;5.426;2024-01-30T08:23:18;18.67;;;12.70;;
49730;SDS011;35622;52.008;5.426;2024-01-30T08:25:44;15.20;;;11.38;;
49730;SDS011;35622;52.008;5.426;2024-01-30T08:28:09;16.58;;;11.15;;
49730;SDS011;35622;52.008;5.426;2024-01-30T08:30:35;17.70;;;11.32;;
49730;SDS011;35622;52.008;5.426;2024-01-30T08:33:01;14.60;;;11.05;;
49730;SDS011;35622;52.008;5.426;2024-01-30T08:35:26;15.52;;;10.85;;
49730;SDS011;35622;52.008;5.426;2024-01-30T08:37:52;16.38;;;10.50;;
49730;SDS011;35622;52.008;5.426;2024-01-30T08:40:19;16.58;;;10.57;;
49730;SDS011;35622;52.008;5.426;2024-01-30T08:42:45;17.20;;;10.75;;
49730;SDS011;35622;52.008;5.426;2024-01-30T08:45:10;14.07;;;10.52;;
49730;SDS011;35622;52.008;5.426;2024-01-30T08:47:36;17.52;;;11.23;;
49730;SDS011;35622;52.008;5.426;2024-01-30T08:50:02;16.77;;;10.40;;
49730;SDS011;35622;52.008;5.426;2024-01-30T08:52:28;17.40;;;10.90;;
49730;SDS011;35622;52.008;5.426;2024-01-30T08:54:53;18.80;;;10.63;;
49730;SDS011;35622;52.008;5.426;2024-01-30T08:57:19;18.30;;;10.98;;
49730;SDS011;35622;52.008;5.426;2024-01-30T08:59:45;15.32;;;10.30;;
49730;SDS011;35622;52.008;5.426;2024-01-30T09:02:11;15.43;;;10.07;;
49730;SDS011;35622;52.008;5.426;2024-01-30T09:04:38;14.88;;;10.82;;
49730;SDS011;35622;52.008;5.426;2024-01-30T09:07:04;18.15;;;11.70;;
49730;SDS011;35622;52.008;5.426;2024-01-30T09:09:33;15.90;;;10.68;;
49730;SDS011;35622;52.008;5.426;2024-01-30T09:11:59;17.60;;;10.90;;
49730;SDS011;35622;52.008;5.426;2024-01-30T09:14:29;19.05;;;11.40;;
49730;SDS011;35622;52.008;5.426;2024-01-30T09:16:55;20.48;;;11.13;;
49730;SDS011;35622;52.008;5.426;2024-01-30T09:19:21;20.08;;;11.88;;
49730;SDS011;35622;52.008;5.426;2024-01-30T09:21:47;20.52;;;11.60;;
49730;SDS011;35622;52.008;5.426;2024-01-30T09:24:12;19.23;;;11.88;;
49730;SDS011;35622;52.008;5.426;2024-01-30T09:26:38;21.80;;;12.45;;
49730;SDS011;35622;52.008;5.426;2024-01-30T09:29:03;19.95;;;12.35;;
49730;SDS011;35622;52.008;5.426;2024-01-30T09:31:29;21.95;;;12.35;;
49730;SDS011;35622;52.008;5.426;2024-01-30T09:33:54;21.75;;;12.75;;
49730;SDS011;35622;52.008;5.426;2024-01-30T09:36:20;19.50;;;11.02;;
49730;SDS011;35622;52.008;5.426;2024-01-30T09:38:46;18.65;;;11.13;;
49730;SDS011;35622;52.008;5.426;2024-01-30T09:41:11;16.77;;;10.63;;
49730;SDS011;35622;52.008;5.426;2024-01-30T09:43:38;16.25;;;10.70;;
49730;SDS011;35622;52.008;5.426;2024-01-30T09:46:07;17.80;;;11.15;;
49730;SDS011;35622;52.008;5.426;2024-01-30T09:48:38;19.70;;;11.30;;
49730;SDS011;35622;52.008;5.426;2024-01-30T09:51:05;16.80;;;10.50;;
49730;SDS011;35622;52.008;5.426;2024-01-30T09:53:32;15.40;;;10.55;;
49730;SDS011;35622;52.008;5.426;2024-01-30T09:55:57;17.02;;;10.88;;
49730;SDS011;35622;52.008;5.426;2024-01-30T09:58:23;15.00;;;9.70;;
49730;SDS011;35622;52.008;5.426;2024-01-30T10:00:49;18.38;;;10.20;;
49730;SDS011;35622;52.008;5.426;2024-01-30T10:03:14;20.27;;;10.23;;
49730;SDS011;35622;52.008;5.426;2024-01-30T10:05:40;13.90;;;9.43;;
49730;SDS011;35622;52.008;5.426;2024-01-30T10:08:07;17.10;;;10.10;;
49730;SDS011;35622;52.008;5.426;2024-01-30T10:10:33;15.15;;;9.52;;
49730;SDS011;35622;52.008;5.426;2024-01-30T10:13:00;15.15;;;9.35;;
49730;SDS011;35622;52.008;5.426;2024-01-30T10:15:26;15.57;;;9.57;;
49730;SDS011;35622;52.008;5.426;2024-01-30T10:17:53;15.07;;;8.43;;
49730;SDS011;35622;52.008;5.426;2024-01-30T10:20:19;13.20;;;8.52;;
49730;SDS011;35622;52.008;5.426;2024-01-30T10:22:47;11.63;;;8.45;;
49730;SDS011;35622;52.008;5.426;2024-01-30T10:25:13;17.85;;;9.68;;
49730;SDS011;35622;52.008;5.426;2024-01-30T10:27:41;15.27;;;8.63;;
49730;SDS011;35622;52.008;5.426;2024-01-30T10:30:07;13.88;;;8.25;;
49730;SDS011;35622;52.008;5.426;2024-01-30T10:32:33;12.30;;;8.20;;
49730;SDS011;35622;52.008;5.426;2024-01-30T10:34:58;13.07;;;8.18;;
49730;SDS011;35622;52.008;5.426;2024-01-30T10:37:27;13.48;;;7.88;;
49730;SDS011;35622;52.008;5.426;2024-01-30T10:39:56;13.48;;;8.30;;
49730;SDS011;35622;52.008;5.426;2024-01-30T10:42:28;12.35;;;8.23;;
49730;SDS011;35622;52.008;5.426;2024-01-30T10:47:37;12.73;;;7.85;;
49730;SDS011;35622;52.008;5.426;2024-01-30T10:50:18;13.23;;;8.32;;
49730;SDS011;35622;52.008;5.426;2024-01-30T10:52:44;12.13;;;7.40;;
49730;SDS011;35622;52.008;5.426;2024-01-30T10:55:12;11.43;;;7.18;;
49730;SDS011;35622;52.008;5.426;2024-01-30T10:57:38;15.32;;;7.55;;
49730;SDS011;35622;52.008;5.426;2024-01-30T11:00:11;13.55;;;7.85;;
49730;SDS011;35622;52.008;5.426;2024-01-30T11:02:44;11.75;;;7.03;;
49730;SDS011;35622;52.008;5.426;2024-01-30T11:05:11;12.40;;;6.78;;
49730;SDS011;35622;52.008;5.426;2024-01-30T11:07:38;14.75;;;7.15;;
49730;SDS011;35622;52.008;5.426;2024-01-30T11:10:06;13.90;;;7.45;;
49730;SDS011;35622;52.008;5.426;2024-01-30T11:12:37;11.32;;;6.88;;
49730;SDS011;35622;52.008;5.426;2024-01-30T11:15:15;11.63;;;6.70;;
49730;SDS011;35622;52.008;5.426;2024-01-30T11:17:53;8.73;;;6.20;;
49730;SDS011;35622;52.008;5.426;2024-01-30T11:20:23;9.88;;;6.00;;
49730;SDS011;35622;52.008;5.426;2024-01-30T11:22:51;9.32;;;5.63;;
49730;SDS011;35622;52.008;5.426;2024-01-30T11:25:19;6.95;;;4.20;;
49730;SDS011;35622;52.008;5.426;2024-01-30T11:27:46;7.28;;;4.63;;
49730;SDS011;35622;52.008;5.426;2024-01-30T11:35:24;6.38;;;3.83;;
49730;SDS011;35622;52.008;5.426;2024-01-30T11:37:50;5.20;;;3.58;;
49730;SDS011;35622;52.008;5.426;2024-01-30T11:40:16;7.68;;;2.88;;
49730;SDS011;35622;52.008;5.426;2024-01-30T11:42:42;4.75;;;2.80;;
49730;SDS011;35622;52.008;5.426;2024-01-30T11:45:08;6.00;;;2.83;;
49730;SDS011;35622;52.008;5.426;2024-01-30T11:47:35;7.18;;;3.20;;
49730;SDS011;35622;52.008;5.426;2024-01-30T11:50:02;8.15;;;3.40;;
49730;SDS011;35622;52.008;5.426;2024-01-30T11:52:31;7.82;;;3.50;;
49730;SDS011;35622;52.008;5.426;2024-01-30T11:54:58;7.30;;;3.58;;
49730;SDS011;35622;52.008;5.426;2024-01-30T11:57:24;6.53;;;2.65;;
49730;SDS011;35622;52.008;5.426;2024-01-30T11:59:51;4.93;;;2.65;;
49730;SDS011;35622;52.008;5.426;2024-01-30T12:02:16;7.70;;;2.38;;
49730;SDS011;35622;52.008;5.426;2024-01-30T12:04:42;5.38;;;2.05;;
49730;SDS011;35622;52.008;5.426;2024-01-30T12:07:08;8.30;;;1.58;;
49730;SDS011;35622;52.008;5.426;2024-01-30T12:09:33;3.65;;;1.20;;
49730;SDS011;35622;52.008;5.426;2024-01-30T12:11:59;10.18;;;1.90;;
49730;SDS011;35622;52.008;5.426;2024-01-30T12:14:25;2.72;;;1.30;;
49730;SDS011;35622;52.008;5.426;2024-01-30T12:16:51;5.25;;;1.15;;
49730;SDS011;35622;52.008;5.426;2024-01-30T12:19:24;3.03;;;1.13;;
49730;SDS011;35622;52.008;5.426;2024-01-30T12:21:53;2.78;;;1.73;;
49730;SDS011;35622;52.008;5.426;2024-01-30T12:24:24;3.60;;;1.50;;
49730;SDS011;35622;52.008;5.426;2024-01-30T12:26:58;6.03;;;2.20;;
49730;SDS011;35622;52.008;5.426;2024-01-30T12:29:25;6.50;;;2.30;;
49730;SDS011;35622;52.008;5.426;2024-01-30T12:31:53;6.25;;;2.72;;
49730;SDS011;35622;52.008;5.426;2024-01-30T12:34:19;5.55;;;3.05;;
49730;SDS011;35622;52.008;5.426;2024-01-30T12:36:46;6.60;;;3.10;;
49730;SDS011;35622;52.008;5.426;2024-01-30T12:39:14;6.43;;;2.58;;
49730;SDS011;35622;52.008;5.426;2024-01-30T12:41:40;6.93;;;2.80;;
49730;SDS011;35622;52.008;5.426;2024-01-30T12:44:05;5.63;;;2.85;;
49730;SDS011;35622;52.008;5.426;2024-01-30T12:46:33;7.55;;;2.80;;
49730;SDS011;35622;52.008;5.426;2024-01-30T12:48:59;6.05;;;2.50;;
49730;SDS011;35622;52.008;5.426;2024-01-30T12:51:25;6.15;;;2.55;;
49730;SDS011;35622;52.008;5.426;2024-01-30T12:53:51;7.93;;;3.35;;
49730;SDS011;35622;52.008;5.426;2024-01-30T12:56:16;8.50;;;3.10;;
49730;SDS011;35622;52.008;5.426;2024-01-30T12:58:42;7.60;;;2.50;;
49730;SDS011;35622;52.008;5.426;2024-01-30T13:01:08;8.85;;;2.55;;
49730;SDS011;35622;52.008;5.426;2024-01-30T13:03:34;8.35;;;2.70;;
49730;SDS011;35622;52.008;5.426;2024-01-30T13:06:00;9.77;;;2.70;;
49730;SDS011;35622;52.008;5.426;2024-01-30T13:08:25;7.43;;;2.30;;
49730;SDS011;35622;52.008;5.426;2024-01-30T13:10:51;8.05;;;1.95;;
49730;SDS011;35622;52.008;5.426;2024-01-30T13:13:16;9.40;;;1.95;;
49730;SDS011;35622;52.008;5.426;2024-01-30T13:15:43;8.30;;;2.50;;
49730;SDS011;35622;52.008;5.426;2024-01-30T13:18:09;7.78;;;2.92;;
49730;SDS011;35622;52.008;5.426;2024-01-30T13:20:35;7.53;;;2.75;;
49730;SDS011;35622;52.008;5.426;2024-01-30T13:23:00;8.20;;;3.50;;
49730;SDS011;35622;52.008;5.426;2024-01-30T13:25:26;7.78;;;3.05;;
49730;SDS011;35622;52.008;5.426;2024-01-30T13:27:52;7.03;;;3.40;;
49730;SDS011;35622;52.008;5.426;2024-01-30T13:30:17;7.50;;;3.20;;
49730;SDS011;35622;52.008;5.426;2024-01-30T13:32:43;7.30;;;3.50;;
49730;SDS011;35622;52.008;5.426;2024-01-30T13:35:09;5.75;;;3.45;;
49730;SDS011;35622;52.008;5.426;2024-01-30T13:37:35;9.65;;;3.78;;
49730;SDS011;35622;52.008;5.426;2024-01-30T13:40:02;7.63;;;2.75;;
49730;SDS011;35622;52.008;5.426;2024-01-30T13:42:31;7.18;;;2.67;;
49730;SDS011;35622;52.008;5.426;2024-01-30T13:44:57;3.53;;;1.92;;
49730;SDS011;35622;52.008;5.426;2024-01-30T13:47:23;7.13;;;2.00;;
49730;SDS011;35622;52.008;5.426;2024-01-30T13:49:48;5.72;;;1.63;;
49730;SDS011;35622;52.008;5.426;2024-01-30T13:52:14;4.90;;;1.60;;
49730;SDS011;35622;52.008;5.426;2024-01-30T13:54:40;5.82;;;1.02;;
49730;SDS011;35622;52.008;5.426;2024-01-30T13:57:05;1.85;;;0.80;;
49730;SDS011;35622;52.008;5.426;2024-01-30T13:59:32;2.90;;;1.00;;
49730;SDS011;35622;52.008;5.426;2024-01-30T14:01:58;2.97;;;0.68;;
49730;SDS011;35622;52.008;5.426;2024-01-30T14:04:24;2.90;;;0.70;;
49730;SDS011;35622;52.008;5.426;2024-01-30T14:06:49;5.18;;;0.73;;
49730;SDS011;35622;52.008;5.426;2024-01-30T14:09:15;2.15;;;0.85;;
49730;SDS011;35622;52.008;5.426;2024-01-30T14:11:41;3.80;;;0.98;;
49730;SDS011;35622;52.008;5.426;2024-01-30T14:14:07;4.78;;;1.00;;
49730;SDS011;35622;52.008;5.426;2024-01-30T14:16:33;4.55;;;1.10;;
49730;SDS011;35622;52.008;5.426;2024-01-30T14:18:59;2.95;;;1.30;;
49730;SDS011;35622;52.008;5.426;2024-01-30T14:21:25;5.25;;;1.67;;
49730;SDS011;35622;52.008;5.426;2024-01-30T14:23:50;4.40;;;1.98;;
49730;SDS011;35622;52.008;5.426;2024-01-30T14:26:16;5.50;;;2.28;;
49730;SDS011;35622;52.008;5.426;2024-01-30T14:28:41;4.15;;;2.00;;
49730;SDS011;35622;52.008;5.426;2024-01-30T14:31:08;5.10;;;2.53;;